AUA26K LOWW-EDDS
Flight info
| Callsign | AUA26K |
|---|---|
| Flight time | 0h 58m |
| Altitude | 32000 |
| Route | LUGEM DCT KIRDI DCT EBEDA L173 DODIL T127 TEKSI TEKSI5A |
| Aircraft | A320/M-SDE3FGHIRWY/LB1 |
Departure
| Time | 2026-04-21 15:56 |
|---|---|
| Airport | Vienna International Airport (LOWW) |
Arrival
| Time | 2026-04-21 16:54 |
|---|---|
| Airport | Stuttgart Airport (EDDS) |
| Time | Latitude | Longitude | Altitude | Speed | Heading |
|---|---|---|---|---|---|
| 2026-04-21 15:34 | 48.11781 | 16.56573 | 617 ft | 0 kts | 25° |
| 2026-04-21 15:48 | 48.11762 | 16.56564 | 624 ft | 4 kts | 338° |
| 2026-04-21 15:48 | 48.11751 | 16.56578 | 611 ft | 2 kts | 22° |
| 2026-04-21 15:48 | 48.11750 | 16.56577 | 611 ft | 0 kts | 25° |
| 2026-04-21 15:50 | 48.11751 | 16.56583 | 625 ft | 1 kts | 57° |
| 2026-04-21 15:50 | 48.11742 | 16.56588 | 627 ft | 2 kts | 172° |
| 2026-04-21 15:51 | 48.11698 | 16.56574 | 615 ft | 9 kts | 157° |
| 2026-04-21 15:51 | 48.11664 | 16.56659 | 615 ft | 10 kts | 115° |
| 2026-04-21 15:51 | 48.11626 | 16.56775 | 615 ft | 15 kts | 116° |
| 2026-04-21 15:51 | 48.11596 | 16.56866 | 618 ft | 11 kts | 116° |
| 2026-04-21 15:52 | 48.11512 | 16.56904 | 611 ft | 19 kts | 201° |
| 2026-04-21 15:52 | 48.11383 | 16.56818 | 613 ft | 17 kts | 189° |
| 2026-04-21 15:52 | 48.11319 | 16.56940 | 615 ft | 17 kts | 114° |
| 2026-04-21 15:52 | 48.11256 | 16.57133 | 611 ft | 24 kts | 119° |
| 2026-04-21 15:53 | 48.11177 | 16.57374 | 619 ft | 26 kts | 116° |
| 2026-04-21 15:53 | 48.11109 | 16.57585 | 616 ft | 13 kts | 115° |
| 2026-04-21 15:53 | 48.11049 | 16.57646 | 627 ft | 11 kts | 190° |
| 2026-04-21 15:53 | 48.11020 | 16.57629 | 615 ft | 0 kts | 205° |
| 2026-04-21 15:54 | 48.11017 | 16.57627 | 614 ft | 3 kts | 205° |
| 2026-04-21 15:54 | 48.10958 | 16.57585 | 614 ft | 16 kts | 207° |
| 2026-04-21 15:54 | 48.10950 | 16.57430 | 614 ft | 0 kts | 294° |
| 2026-04-21 15:55 | 48.10950 | 16.57429 | 613 ft | 1 kts | 294° |
| 2026-04-21 15:55 | 48.11019 | 16.57213 | 614 ft | 59 kts | 296° |
| 2026-04-21 15:55 | 48.11303 | 16.56338 | 615 ft | 124 kts | 296° |
| 2026-04-21 15:56 | 48.11746 | 16.54962 | 724 ft | 161 kts | 297° |
| 2026-04-21 15:56 | 48.12157 | 16.53486 | 1552 ft | 153 kts | 286° |
| 2026-04-21 15:56 | 48.12129 | 16.51856 | 2257 ft | 160 kts | 268° |
| 2026-04-21 15:56 | 48.11953 | 16.50145 | 2706 ft | 179 kts | 267° |
| 2026-04-21 15:57 | 48.11737 | 16.48178 | 3046 ft | 203 kts | 266° |
| 2026-04-21 15:57 | 48.11427 | 16.45958 | 3443 ft | 226 kts | 261° |
| 2026-04-21 15:57 | 48.11016 | 16.43576 | 3825 ft | 252 kts | 259° |
| 2026-04-21 15:57 | 48.10542 | 16.40941 | 4484 ft | 269 kts | 259° |
| 2026-04-21 15:58 | 48.10047 | 16.38212 | 5414 ft | 274 kts | 259° |
| 2026-04-21 15:58 | 48.09846 | 16.35384 | 6373 ft | 275 kts | 274° |
| 2026-04-21 15:58 | 48.09870 | 16.32513 | 7337 ft | 277 kts | 275° |
| 2026-04-21 15:58 | 48.09913 | 16.29621 | 8324 ft | 279 kts | 275° |
| 2026-04-21 15:59 | 48.09963 | 16.26703 | 9314 ft | 281 kts | 274° |
| 2026-04-21 15:59 | 48.10016 | 16.23768 | 10240 ft | 285 kts | 274° |
| 2026-04-21 15:59 | 48.10088 | 16.20696 | 10607 ft | 308 kts | 277° |
| 2026-04-21 15:59 | 48.10378 | 16.17412 | 10911 ft | 329 kts | 281° |
| 2026-04-21 16:00 | 48.10704 | 16.13979 | 11615 ft | 336 kts | 280° |
| 2026-04-21 16:00 | 48.11027 | 16.10499 | 12398 ft | 340 kts | 280° |
| 2026-04-21 16:00 | 48.11344 | 16.06992 | 13251 ft | 342 kts | 279° |
| 2026-04-21 16:00 | 48.11659 | 16.03440 | 14055 ft | 346 kts | 279° |
| 2026-04-21 16:01 | 48.11976 | 15.99853 | 14736 ft | 350 kts | 279° |
| 2026-04-21 16:01 | 48.12295 | 15.96237 | 15454 ft | 352 kts | 279° |
| 2026-04-21 16:01 | 48.12620 | 15.92538 | 16155 ft | 356 kts | 279° |
| 2026-04-21 16:01 | 48.12946 | 15.88854 | 16864 ft | 359 kts | 279° |
| 2026-04-21 16:02 | 48.13273 | 15.85186 | 17567 ft | 361 kts | 279° |
| 2026-04-21 16:02 | 48.13609 | 15.81388 | 18293 ft | 364 kts | 279° |
| 2026-04-21 16:02 | 48.13939 | 15.77612 | 18930 ft | 367 kts | 279° |
| 2026-04-21 16:02 | 48.14268 | 15.73855 | 19552 ft | 370 kts | 279° |
| 2026-04-21 16:03 | 48.14600 | 15.70026 | 20186 ft | 372 kts | 279° |
| 2026-04-21 16:03 | 48.14932 | 15.66161 | 20809 ft | 375 kts | 279° |
| 2026-04-21 16:03 | 48.15263 | 15.62275 | 21423 ft | 378 kts | 278° |
| 2026-04-21 16:03 | 48.15595 | 15.58353 | 22022 ft | 380 kts | 278° |
| 2026-04-21 16:04 | 48.15930 | 15.54412 | 22604 ft | 383 kts | 278° |
| 2026-04-21 16:04 | 48.16270 | 15.50444 | 23150 ft | 385 kts | 278° |
| 2026-04-21 16:04 | 48.16610 | 15.46448 | 23710 ft | 388 kts | 278° |
| 2026-04-21 16:04 | 48.16954 | 15.42425 | 24157 ft | 391 kts | 278° |
| 2026-04-21 16:05 | 48.17252 | 15.38367 | 24590 ft | 394 kts | 274° |
| 2026-04-21 16:05 | 48.17359 | 15.34254 | 25008 ft | 396 kts | 274° |
| 2026-04-21 16:05 | 48.17459 | 15.30115 | 25411 ft | 399 kts | 274° |
| 2026-04-21 16:05 | 48.17557 | 15.25952 | 25812 ft | 401 kts | 274° |
| 2026-04-21 16:06 | 48.17656 | 15.21755 | 26210 ft | 404 kts | 274° |
| 2026-04-21 16:06 | 48.17756 | 15.17542 | 26611 ft | 406 kts | 274° |
| 2026-04-21 16:06 | 48.17854 | 15.13305 | 26997 ft | 408 kts | 274° |
| 2026-04-21 16:06 | 48.17950 | 15.09045 | 27366 ft | 410 kts | 273° |
| 2026-04-21 16:07 | 48.18044 | 15.04762 | 27738 ft | 412 kts | 273° |
| 2026-04-21 16:07 | 48.18137 | 15.00456 | 28098 ft | 415 kts | 273° |
| 2026-04-21 16:07 | 48.18227 | 14.96126 | 28452 ft | 417 kts | 273° |
| 2026-04-21 16:07 | 48.18316 | 14.91771 | 28791 ft | 419 kts | 273° |
| 2026-04-21 16:08 | 48.18491 | 14.82986 | 29443 ft | 424 kts | 273° |
| 2026-04-21 16:08 | 48.18578 | 14.78564 | 29756 ft | 426 kts | 273° |
| 2026-04-21 16:08 | 48.18666 | 14.74121 | 30050 ft | 428 kts | 273° |
| 2026-04-21 16:09 | 48.18755 | 14.69658 | 30318 ft | 430 kts | 273° |
| 2026-04-21 16:09 | 48.18839 | 14.65174 | 30534 ft | 431 kts | 273° |
| 2026-04-21 16:09 | 48.18923 | 14.60728 | 30748 ft | 433 kts | 273° |
| 2026-04-21 16:09 | 48.19005 | 14.56223 | 31036 ft | 432 kts | 273° |
| 2026-04-21 16:10 | 48.19083 | 14.51665 | 31317 ft | 432 kts | 273° |
| 2026-04-21 16:10 | 48.19156 | 14.47214 | 31590 ft | 433 kts | 273° |
| 2026-04-21 16:10 | 48.19231 | 14.42642 | 31872 ft | 433 kts | 273° |
| 2026-04-21 16:10 | 48.19303 | 14.38194 | 32117 ft | 434 kts | 273° |
| 2026-04-21 16:11 | 48.19374 | 14.33689 | 32186 ft | 430 kts | 273° |
| 2026-04-21 16:11 | 48.19512 | 14.24779 | 32190 ft | 426 kts | 273° |
| 2026-04-21 16:12 | 48.19623 | 14.17361 | 32193 ft | 424 kts | 273° |
| 2026-04-21 16:12 | 48.19765 | 14.07087 | 32191 ft | 424 kts | 273° |
| 2026-04-21 16:13 | 48.19878 | 13.98262 | 32192 ft | 424 kts | 273° |
| 2026-04-21 16:13 | 48.19984 | 13.89430 | 32185 ft | 423 kts | 272° |
| 2026-04-21 16:14 | 48.20088 | 13.80613 | 32183 ft | 423 kts | 272° |
| 2026-04-21 16:14 | 48.20185 | 13.71796 | 32172 ft | 423 kts | 272° |
| 2026-04-21 16:15 | 48.20275 | 13.62972 | 32172 ft | 423 kts | 272° |
| 2026-04-21 16:15 | 48.20358 | 13.54158 | 32163 ft | 423 kts | 272° |
| 2026-04-21 16:16 | 48.20432 | 13.45343 | 32164 ft | 423 kts | 272° |
| 2026-04-21 16:16 | 48.20504 | 13.36529 | 32151 ft | 423 kts | 272° |
| 2026-04-21 16:17 | 48.20568 | 13.27707 | 32151 ft | 423 kts | 272° |
| 2026-04-21 16:17 | 48.20620 | 13.18893 | 32155 ft | 423 kts | 272° |
| 2026-04-21 16:18 | 48.20665 | 13.10080 | 32148 ft | 423 kts | 272° |
| 2026-04-21 16:18 | 48.20705 | 13.01267 | 32155 ft | 423 kts | 272° |
| 2026-04-21 16:19 | 48.20743 | 12.92450 | 32155 ft | 423 kts | 272° |
| 2026-04-21 16:19 | 48.20769 | 12.83631 | 32149 ft | 423 kts | 272° |
| 2026-04-21 16:20 | 48.20296 | 12.74809 | 32142 ft | 425 kts | 266° |
| 2026-04-21 16:20 | 48.19707 | 12.66004 | 32152 ft | 425 kts | 266° |
| 2026-04-21 16:21 | 48.19114 | 12.57199 | 32150 ft | 425 kts | 266° |
| 2026-04-21 16:21 | 48.18620 | 12.49882 | 32150 ft | 425 kts | 266° |
| 2026-04-21 16:22 | 48.18022 | 12.41067 | 32151 ft | 425 kts | 266° |
| 2026-04-21 16:22 | 48.17413 | 12.32260 | 32149 ft | 425 kts | 266° |
| 2026-04-21 16:23 | 48.16790 | 12.23450 | 32149 ft | 425 kts | 266° |
| 2026-04-21 16:23 | 48.16176 | 12.14650 | 32147 ft | 424 kts | 268° |
| 2026-04-21 16:24 | 48.16895 | 12.06029 | 32147 ft | 418 kts | 292° |
| 2026-04-21 16:24 | 48.19224 | 11.98034 | 32143 ft | 418 kts | 295° |
| 2026-04-21 16:25 | 48.21609 | 11.90078 | 32150 ft | 418 kts | 295° |
| 2026-04-21 16:25 | 48.24000 | 11.82117 | 32152 ft | 418 kts | 295° |
| 2026-04-21 16:26 | 48.26374 | 11.74145 | 32154 ft | 418 kts | 294° |
| 2026-04-21 16:26 | 48.28731 | 11.66157 | 32154 ft | 419 kts | 294° |
| 2026-04-21 16:27 | 48.31086 | 11.58166 | 32149 ft | 418 kts | 294° |
| 2026-04-21 16:27 | 48.33441 | 11.50177 | 32153 ft | 418 kts | 294° |
| 2026-04-21 16:28 | 48.35785 | 11.42180 | 32152 ft | 418 kts | 294° |
| 2026-04-21 16:28 | 48.38110 | 11.34161 | 32148 ft | 418 kts | 293° |
| 2026-04-21 16:29 | 48.40210 | 11.26056 | 32146 ft | 418 kts | 291° |
| 2026-04-21 16:29 | 48.42188 | 11.17820 | 32149 ft | 418 kts | 291° |
| 2026-04-21 16:30 | 48.44177 | 11.09599 | 32153 ft | 418 kts | 291° |
| 2026-04-21 16:30 | 48.46201 | 11.01395 | 32152 ft | 417 kts | 291° |
| 2026-04-21 16:31 | 48.48237 | 10.93201 | 32155 ft | 417 kts | 291° |
| 2026-04-21 16:31 | 48.50254 | 10.85009 | 32137 ft | 417 kts | 291° |
| 2026-04-21 16:32 | 48.52259 | 10.76807 | 32148 ft | 416 kts | 291° |
| 2026-04-21 16:32 | 48.54253 | 10.68610 | 32149 ft | 415 kts | 291° |
| 2026-04-21 16:33 | 48.56237 | 10.60427 | 32148 ft | 415 kts | 291° |
| 2026-04-21 16:33 | 48.58211 | 10.52239 | 32149 ft | 415 kts | 291° |
| 2026-04-21 16:34 | 48.60186 | 10.44041 | 32129 ft | 415 kts | 291° |
| 2026-04-21 16:34 | 48.62155 | 10.35846 | 32159 ft | 415 kts | 291° |
| 2026-04-21 16:35 | 48.64108 | 10.27669 | 32150 ft | 417 kts | 291° |
| 2026-04-21 16:35 | 48.66069 | 10.19418 | 32151 ft | 417 kts | 291° |
| 2026-04-21 16:36 | 48.68029 | 10.11076 | 32001 ft | 426 kts | 289° |
| 2026-04-21 16:36 | 48.68719 | 10.06691 | 30765 ft | 435 kts | 279° |
| 2026-04-21 16:36 | 48.68848 | 10.02079 | 29714 ft | 439 kts | 269° |
| 2026-04-21 16:36 | 48.68593 | 9.97539 | 29086 ft | 429 kts | 268° |
| 2026-04-21 16:37 | 48.68364 | 9.93063 | 28368 ft | 423 kts | 268° |
| 2026-04-21 16:37 | 48.68164 | 9.88658 | 27675 ft | 417 kts | 269° |
| 2026-04-21 16:37 | 48.67980 | 9.84306 | 27003 ft | 412 kts | 269° |
| 2026-04-21 16:37 | 48.67794 | 9.80000 | 26343 ft | 408 kts | 268° |
| 2026-04-21 16:38 | 48.67602 | 9.75737 | 25686 ft | 405 kts | 268° |
| 2026-04-21 16:38 | 48.67298 | 9.71511 | 25040 ft | 403 kts | 261° |
| 2026-04-21 16:38 | 48.66537 | 9.67445 | 24407 ft | 403 kts | 251° |
| 2026-04-21 16:38 | 48.65309 | 9.63630 | 23788 ft | 403 kts | 241° |
| 2026-04-21 16:39 | 48.63670 | 9.60189 | 23106 ft | 403 kts | 232° |
| 2026-04-21 16:39 | 48.61873 | 9.56964 | 22524 ft | 399 kts | 232° |
| 2026-04-21 16:39 | 48.60101 | 9.53775 | 21982 ft | 394 kts | 232° |
| 2026-04-21 16:39 | 48.58347 | 9.50619 | 21458 ft | 390 kts | 232° |
| 2026-04-21 16:40 | 48.56608 | 9.47488 | 20951 ft | 386 kts | 233° |
| 2026-04-21 16:40 | 48.55098 | 9.44183 | 20461 ft | 380 kts | 243° |
| 2026-04-21 16:40 | 48.53993 | 9.40608 | 19993 ft | 373 kts | 252° |
| 2026-04-21 16:40 | 48.53241 | 9.36892 | 19545 ft | 368 kts | 256° |
| 2026-04-21 16:41 | 48.52547 | 9.33201 | 19089 ft | 364 kts | 256° |
| 2026-04-21 16:41 | 48.51851 | 9.29552 | 18613 ft | 361 kts | 256° |
| 2026-04-21 16:41 | 48.51157 | 9.25925 | 18090 ft | 359 kts | 256° |
| 2026-04-21 16:41 | 48.50472 | 9.22330 | 17612 ft | 355 kts | 255° |
| 2026-04-21 16:42 | 48.49793 | 9.18765 | 17130 ft | 351 kts | 256° |
| 2026-04-21 16:42 | 48.49115 | 9.15219 | 16335 ft | 357 kts | 256° |
| 2026-04-21 16:42 | 48.48420 | 9.11573 | 15348 ft | 368 kts | 256° |
| 2026-04-21 16:42 | 48.47703 | 9.07812 | 14358 ft | 378 kts | 255° |
| 2026-04-21 16:43 | 48.46971 | 9.03972 | 13541 ft | 382 kts | 255° |
| 2026-04-21 16:43 | 48.46252 | 9.00229 | 13368 ft | 358 kts | 255° |
| 2026-04-21 16:43 | 48.45590 | 8.96814 | 13221 ft | 330 kts | 255° |
| 2026-04-21 16:43 | 48.44965 | 8.93607 | 12910 ft | 311 kts | 255° |
| 2026-04-21 16:44 | 48.44474 | 8.90433 | 12231 ft | 305 kts | 265° |
| 2026-04-21 16:44 | 48.44494 | 8.87268 | 11531 ft | 301 kts | 279° |
| 2026-04-21 16:44 | 48.44999 | 8.84283 | 10816 ft | 298 kts | 293° |
| 2026-04-21 16:44 | 48.45766 | 8.81359 | 10055 ft | 299 kts | 294° |
| 2026-04-21 16:45 | 48.46531 | 8.78437 | 9445 ft | 297 kts | 292° |
| 2026-04-21 16:45 | 48.47283 | 8.75576 | 9184 ft | 290 kts | 295° |
| 2026-04-21 16:45 | 48.48363 | 8.73118 | 9045 ft | 275 kts | 317° |
| 2026-04-21 16:45 | 48.49860 | 8.71496 | 8913 ft | 258 kts | 340° |
| 2026-04-21 16:46 | 48.51529 | 8.70804 | 8776 ft | 242 kts | 359° |
| 2026-04-21 16:46 | 48.53160 | 8.70838 | 8640 ft | 229 kts | 7° |
| 2026-04-21 16:46 | 48.54677 | 8.71401 | 8310 ft | 222 kts | 32° |
| 2026-04-21 16:46 | 48.55861 | 8.72834 | 8019 ft | 216 kts | 47° |
| 2026-04-21 16:47 | 48.56906 | 8.74443 | 7732 ft | 213 kts | 48° |
| 2026-04-21 16:47 | 48.57935 | 8.76028 | 7466 ft | 211 kts | 47° |
| 2026-04-21 16:47 | 48.58959 | 8.77600 | 7195 ft | 209 kts | 47° |
| 2026-04-21 16:47 | 48.59980 | 8.79171 | 6922 ft | 209 kts | 47° |
| 2026-04-21 16:48 | 48.60903 | 8.80831 | 6700 ft | 203 kts | 61° |
| 2026-04-21 16:48 | 48.61427 | 8.82811 | 6462 ft | 204 kts | 73° |
| 2026-04-21 16:48 | 48.61823 | 8.84863 | 6181 ft | 203 kts | 73° |
| 2026-04-21 16:48 | 48.62219 | 8.86912 | 5903 ft | 203 kts | 73° |
| 2026-04-21 16:49 | 48.62613 | 8.88945 | 5626 ft | 201 kts | 73° |
| 2026-04-21 16:49 | 48.63003 | 8.90964 | 5355 ft | 199 kts | 73° |
| 2026-04-21 16:49 | 48.63391 | 8.92974 | 5084 ft | 199 kts | 73° |
| 2026-04-21 16:49 | 48.63777 | 8.94975 | 4813 ft | 198 kts | 73° |
| 2026-04-21 16:50 | 48.64161 | 8.96966 | 4540 ft | 196 kts | 73° |
| 2026-04-21 16:50 | 48.64540 | 8.98936 | 4272 ft | 195 kts | 73° |
| 2026-04-21 16:50 | 48.64917 | 9.00894 | 4003 ft | 193 kts | 73° |
| 2026-04-21 16:50 | 48.65291 | 9.02844 | 3733 ft | 193 kts | 72° |
| 2026-04-21 16:51 | 48.65663 | 9.04781 | 3484 ft | 191 kts | 72° |
| 2026-04-21 16:51 | 48.66026 | 9.06678 | 3248 ft | 183 kts | 72° |
| 2026-04-21 16:51 | 48.66363 | 9.08440 | 2983 ft | 167 kts | 72° |
| 2026-04-21 16:51 | 48.66671 | 9.10050 | 2759 ft | 151 kts | 72° |
| 2026-04-21 16:52 | 48.66947 | 9.11492 | 2537 ft | 135 kts | 72° |
| 2026-04-21 16:52 | 48.67206 | 9.12847 | 2358 ft | 135 kts | 71° |
| 2026-04-21 16:52 | 48.67464 | 9.14197 | 2144 ft | 132 kts | 76° |
| 2026-04-21 16:52 | 48.67719 | 9.15534 | 1986 ft | 131 kts | 73° |
| 2026-04-21 16:53 | 48.67969 | 9.16846 | 1804 ft | 130 kts | 74° |
| 2026-04-21 16:53 | 48.68219 | 9.18157 | 1621 ft | 129 kts | 74° |
| 2026-04-21 16:53 | 48.68471 | 9.19450 | 1404 ft | 128 kts | 74° |
| 2026-04-21 16:53 | 48.68711 | 9.20729 | 1272 ft | 125 kts | 75° |
| 2026-04-21 16:54 | 48.68910 | 9.21775 | 1250 ft | 79 kts | 74° |
| 2026-04-21 16:54 | 48.69013 | 9.22325 | 1232 ft | 30 kts | 74° |
| 2026-04-21 16:54 | 48.69043 | 9.22482 | 1228 ft | 17 kts | 74° |
| 2026-04-21 16:54 | 48.69150 | 9.22525 | 1227 ft | 23 kts | 343° |
| 2026-04-21 16:55 | 48.69280 | 9.22454 | 1247 ft | 20 kts | 314° |
| 2026-04-21 16:55 | 48.69248 | 9.22196 | 1248 ft | 26 kts | 254° |
| 2026-04-21 16:55 | 48.69198 | 9.21933 | 1253 ft | 26 kts | 253° |
| 2026-04-21 16:55 | 48.69150 | 9.21680 | 1255 ft | 22 kts | 253° |
| 2026-04-21 16:56 | 48.69106 | 9.21457 | 1260 ft | 23 kts | 254° |
| 2026-04-21 16:56 | 48.69067 | 9.21248 | 1267 ft | 20 kts | 254° |
| 2026-04-21 16:56 | 48.69028 | 9.21038 | 1273 ft | 22 kts | 253° |
| 2026-04-21 16:56 | 48.68983 | 9.20810 | 1276 ft | 24 kts | 253° |
| 2026-04-21 16:57 | 48.68937 | 9.20556 | 1281 ft | 26 kts | 254° |
| 2026-04-21 16:57 | 48.68885 | 9.20284 | 1289 ft | 28 kts | 254° |
| 2026-04-21 16:57 | 48.68840 | 9.20043 | 1294 ft | 15 kts | 252° |
| 2026-04-21 16:57 | 48.68828 | 9.19899 | 1298 ft | 14 kts | 320° |
| 2026-04-21 16:58 | 48.68887 | 9.19817 | 1304 ft | 12 kts | 268° |
| 2026-04-21 16:58 | 48.68879 | 9.19765 | 1306 ft | 0 kts | 254° |
| 2026-04-21 16:58 | 48.68879 | 9.19764 | 1306 ft | 1 kts | 254° |
| 2026-04-21 16:58 | 48.68872 | 9.19691 | 1308 ft | 6 kts | 289° |
| 2026-04-21 16:59 | 48.68901 | 9.19663 | 1311 ft | 9 kts | 340° |
| 2026-04-21 16:59 | 48.68921 | 9.19654 | 1313 ft | 0 kts | 343° |
| 2026-04-21 16:59 | 48.68925 | 9.19652 | 1313 ft | 1 kts | 343° |
| 2026-04-21 16:59 | 48.68938 | 9.19647 | 1314 ft | 3 kts | 343° |
| 2026-04-21 17:00 | 48.68942 | 9.19644 | 1315 ft | 0 kts | 344° |
| 2026-04-21 17:00 | 48.68943 | 9.19644 | 1315 ft | 0 kts | 344° |